Terminal Aerodrome Forecast
Issued by NWS

Home | Current Version | Previous Version | Text Only | Print | Product List | Glossary On
Versions: 1 2 3 4 5 6 7 8 9 10 11 12 13
000
FTUS44 KCRP 281120
TAFALI
TAF
KALI 281120Z 2812/2912 13007KT 5SM BR SCT012 BKN019
     FM281400 15013KT P6SM SCT015 BKN025
     FM281700 14015G20KT P6SM BKN040
     FM290100 13010KT P6SM SCT012 BKN028
     FM290600 13007KT 5SM BR BKN015=

USA.gov is the U.S. government's official web portal to all federal, state and local government web resources and services.